createdAt,value
2016-08-28T00:00:05.299Z,28.39
2016-08-28T00:00:27.047Z,28.49
2016-08-28T00:00:48.772Z,28.26
2016-08-28T00:01:10.567Z,28.12
2016-08-28T00:01:32.491Z,28.09
2016-08-28T00:01:54.332Z,28.01
2016-08-28T00:02:16.118Z,27.96
2016-08-28T00:02:37.884Z,27.90
2016-08-28T00:02:59.643Z,27.88
2016-08-28T00:03:21.424Z,27.78
2016-08-28T00:03:43.147Z,27.82
2016-08-28T00:04:04.934Z,27.86
2016-08-28T00:04:26.665Z,27.90
2016-08-28T00:04:48.414Z,28.08
2016-08-28T00:05:10.194Z,28.22
2016-08-28T00:05:31.949Z,28.41
2016-08-28T00:05:53.707Z,28.24
2016-08-28T00:06:15.670Z,28.24
2016-08-28T00:06:37.401Z,28.43
2016-08-28T00:06:59.195Z,28.57
2016-08-28T00:07:20.928Z,28.58
2016-08-28T00:07:42.679Z,28.60
2016-08-28T00:08:04.405Z,28.62
2016-08-28T00:08:26.182Z,28.47
2016-08-28T00:08:47.922Z,28.43
2016-08-28T00:09:09.745Z,28.37
2016-08-28T00:09:31.493Z,28.40
2016-08-28T00:09:53.234Z,28.32
2016-08-28T00:10:15.037Z,28.44
2016-08-28T00:10:37.819Z,28.58
2016-08-28T00:10:59.535Z,28.54
2016-08-28T00:11:21.265Z,28.51
2016-08-28T00:11:47.760Z,28.61
2016-08-28T00:12:09.484Z,28.61
2016-08-28T00:12:31.222Z,28.55
2016-08-28T00:12:52.943Z,28.55
2016-08-28T00:13:19.487Z,28.66
2016-08-28T00:13:41.272Z,28.70
2016-08-28T00:14:03.008Z,28.77
2016-08-28T00:14:24.802Z,28.82
2016-08-28T00:14:46.655Z,28.80
2016-08-28T00:15:08.384Z,28.78
2016-08-28T00:15:30.111Z,28.55
2016-08-28T00:15:51.837Z,28.58
2016-08-28T00:16:13.707Z,28.60
2016-08-28T00:17:06.899Z,28.02
2016-08-28T00:17:28.618Z,27.98
2016-08-28T00:17:50.351Z,28.06
2016-08-28T00:18:16.837Z,28.19
2016-08-28T00:18:38.568Z,28.31
2016-08-28T00:19:00.288Z,28.47
2016-08-28T00:19:22.012Z,28.45
2016-08-28T00:19:43.759Z,28.13
2016-08-28T00:20:05.615Z,28.06
2016-08-28T00:20:27.398Z,28.17
2016-08-28T00:20:49.130Z,28.30
2016-08-28T00:21:10.863Z,28.36
2016-08-28T00:21:32.673Z,28.31
2016-08-28T00:21:54.395Z,28.45
2016-08-28T00:22:16.198Z,28.46
2016-08-28T00:22:37.975Z,28.50
2016-08-28T00:22:59.693Z,28.49
2016-08-28T00:23:21.430Z,28.47
2016-08-28T00:23:47.918Z,28.15
2016-08-28T00:24:09.636Z,28.03
2016-08-28T00:24:31.388Z,27.80
2016-08-28T00:24:53.153Z,27.73
2016-08-28T00:25:14.901Z,27.85
2016-08-28T00:25:36.826Z,27.87
2016-08-28T00:25:58.562Z,27.99
2016-08-28T00:26:20.287Z,27.94
2016-08-28T00:26:42.077Z,27.93
2016-08-28T00:27:03.810Z,28.04
2016-08-28T00:27:25.534Z,28.24
2016-08-28T00:27:47.325Z,28.41
2016-08-28T00:28:09.073Z,28.25
2016-08-28T00:28:30.838Z,28.19
2016-08-28T00:28:52.602Z,28.28
2016-08-28T00:29:40.831Z,28.14
2016-08-28T00:30:02.649Z,27.94
2016-08-28T00:30:24.370Z,27.86
2016-08-28T00:30:46.121Z,27.78
2016-08-28T00:31:08.005Z,27.78
2016-08-28T00:31:29.747Z,27.64
2016-08-28T00:31:52.546Z,27.58
2016-08-28T00:32:14.330Z,27.44
2016-08-28T00:32:36.178Z,27.45
2016-08-28T00:32:58.911Z,27.63
2016-08-28T00:33:20.652Z,27.84
2016-08-28T00:33:42.370Z,27.79
2016-08-28T00:34:08.871Z,27.69
2016-08-28T00:34:30.597Z,27.61
2016-08-28T00:34:52.332Z,27.66
2016-08-28T00:35:14.135Z,27.65
2016-08-28T00:35:35.858Z,27.89
2016-08-28T00:35:57.582Z,28.11
2016-08-28T00:36:19.314Z,28.27
2016-08-28T00:36:41.034Z,28.38
2016-08-28T00:37:02.827Z,28.29
2016-08-28T00:37:24.556Z,28.19
2016-08-28T00:37:46.281Z,28.26
2016-08-28T00:38:08.116Z,28.37
2016-08-28T00:38:29.840Z,28.34
2016-08-28T00:38:51.646Z,28.16
2016-08-28T00:39:13.368Z,27.90
2016-08-28T00:39:35.102Z,27.80
2016-08-28T00:39:56.841Z,28.01
2016-08-28T00:40:18.609Z,28.17
2016-08-28T00:40:40.350Z,28.25
2016-08-28T00:41:03.172Z,28.26
2016-08-28T00:41:24.905Z,28.28
2016-08-28T00:41:47.726Z,28.37
2016-08-28T00:42:14.235Z,28.43
2016-08-28T00:42:35.951Z,28.35
2016-08-28T00:43:24.257Z,28.13
2016-08-28T00:43:47.078Z,28.08
2016-08-28T00:44:08.961Z,28.13
2016-08-28T00:44:30.742Z,28.13
2016-08-28T00:44:52.533Z,28.11
2016-08-28T00:45:14.265Z,28.11
2016-08-28T00:45:36.020Z,28.13
2016-08-28T00:45:57.759Z,28.15
2016-08-28T00:46:19.607Z,28.00
2016-08-28T00:46:42.344Z,27.91
2016-08-28T00:47:04.077Z,28.01
2016-08-28T00:47:25.804Z,28.00
2016-08-28T00:47:47.571Z,28.10
2016-08-28T00:48:09.338Z,28.15
2016-08-28T00:48:31.089Z,28.05
2016-08-28T00:48:52.857Z,27.86
2016-08-28T00:49:14.622Z,27.84
2016-08-28T00:49:36.351Z,27.67
2016-08-28T00:49:58.078Z,27.58
2016-08-28T00:50:19.880Z,27.46
2016-08-28T00:50:41.601Z,27.30
2016-08-28T00:51:03.391Z,27.18
2016-08-28T00:51:29.925Z,27.12
2016-08-28T00:51:51.710Z,26.99
2016-08-28T00:52:13.452Z,27.24
2016-08-28T00:52:35.178Z,27.44
2016-08-28T00:52:56.940Z,27.36
2016-08-28T00:53:23.433Z,27.18
2016-08-28T00:53:45.154Z,27.21
2016-08-28T00:54:06.903Z,27.28
2016-08-28T00:54:28.645Z,27.34
2016-08-28T00:54:50.364Z,27.30
2016-08-28T00:55:12.172Z,27.41
2016-08-28T00:55:33.931Z,27.57
2016-08-28T00:56:00.431Z,27.47
2016-08-28T00:56:22.200Z,27.36
2016-08-28T00:56:43.942Z,27.35
2016-08-28T00:57:05.673Z,27.44
2016-08-28T00:57:27.416Z,27.44
2016-08-28T00:57:49.196Z,27.52
2016-08-28T00:58:10.951Z,27.37
2016-08-28T00:58:37.488Z,27.35
2016-08-28T00:58:59.221Z,27.60
2016-08-28T00:59:20.946Z,27.82
2016-08-28T00:59:42.668Z,27.93
2016-08-28T01:00:04.402Z,28.04
2016-08-28T01:00:26.128Z,28.04
2016-08-28T01:00:47.891Z,27.97
2016-08-28T01:01:09.785Z,27.97
2016-08-28T01:01:31.539Z,28.06
2016-08-28T01:01:53.356Z,28.19
2016-08-28T01:02:15.081Z,28.18
2016-08-28T01:02:36.819Z,28.25
2016-08-28T01:02:58.550Z,28.24
2016-08-28T01:03:20.287Z,28.11
2016-08-28T01:03:42.009Z,27.78
2016-08-28T01:04:08.532Z,27.79
2016-08-28T01:04:30.265Z,27.79
2016-08-28T01:04:52.014Z,27.82
2016-08-28T01:05:13.771Z,27.74
2016-08-28T01:05:35.537Z,27.63
2016-08-28T01:05:57.265Z,27.63
2016-08-28T01:06:18.989Z,27.79
2016-08-28T01:06:40.712Z,27.85
2016-08-28T01:07:02.491Z,27.95
2016-08-28T01:07:24.233Z,27.99
2016-08-28T01:07:45.973Z,28.06
2016-08-28T01:08:07.708Z,28.01
2016-08-28T01:08:29.430Z,28.09
2016-08-28T01:08:51.193Z,28.01
2016-08-28T01:09:12.996Z,27.91
2016-08-28T01:09:34.752Z,27.66
2016-08-28T01:09:56.519Z,27.47
2016-08-28T01:10:18.247Z,27.35
2016-08-28T01:10:40.040Z,27.19
2016-08-28T01:11:01.829Z,27.16
2016-08-28T01:11:23.583Z,27.13
2016-08-28T01:11:45.385Z,27.11
2016-08-28T01:12:08.136Z,27.06
2016-08-28T01:12:29.866Z,27.33
2016-08-28T01:12:51.613Z,27.32
2016-08-28T01:13:14.358Z,27.43
2016-08-28T01:13:36.082Z,27.28
2016-08-28T01:13:57.865Z,27.18
2016-08-28T01:14:19.650Z,27.12
2016-08-28T01:14:41.442Z,27.04
2016-08-28T01:15:03.272Z,27.10
2016-08-28T01:15:51.607Z,27.38
2016-08-28T01:16:13.449Z,27.44
2016-08-28T01:16:35.220Z,27.38
2016-08-28T01:16:56.967Z,27.46
2016-08-28T01:17:23.463Z,27.65
2016-08-28T01:17:45.208Z,27.74
2016-08-28T01:18:06.957Z,27.76
2016-08-28T01:18:28.706Z,27.78
2016-08-28T01:18:50.447Z,27.67
2016-08-28T01:19:12.202Z,27.54
2016-08-28T01:19:33.933Z,27.52
2016-08-28T01:19:55.722Z,27.34
2016-08-28T01:20:22.228Z,27.31
2016-08-28T01:20:43.989Z,27.39
2016-08-28T01:21:05.723Z,27.26
2016-08-28T01:21:32.260Z,27.10
2016-08-28T01:21:54.063Z,27.15
2016-08-28T01:22:15.846Z,27.39
2016-08-28T01:22:37.575Z,27.34
2016-08-28T01:23:36.055Z,27.20
2016-08-28T01:23:57.773Z,27.24
2016-08-28T01:24:19.527Z,27.34
2016-08-28T01:24:41.337Z,27.45
2016-08-28T01:25:03.099Z,27.38
2016-08-28T01:25:24.834Z,27.13
2016-08-28T01:25:46.587Z,27.01
2016-08-28T01:26:08.335Z,26.89
2016-08-28T01:26:30.160Z,26.72
2016-08-28T01:26:52.000Z,26.79
2016-08-28T01:27:13.780Z,26.89
2016-08-28T01:27:36.507Z,26.97
2016-08-28T01:27:58.222Z,27.23
2016-08-28T01:28:19.948Z,27.47
2016-08-28T01:28:41.723Z,27.58
2016-08-28T01:29:03.478Z,27.27
2016-08-28T01:29:25.199Z,27.18
2016-08-28T01:29:46.928Z,27.20
2016-08-28T01:30:08.660Z,27.09
2016-08-28T01:30:30.390Z,27.05
2016-08-28T01:30:52.125Z,27.17
2016-08-28T01:31:13.931Z,27.33
2016-08-28T01:31:35.667Z,27.47
2016-08-28T01:31:57.442Z,27.44
2016-08-28T01:32:19.188Z,27.30
2016-08-28T01:32:40.928Z,27.03
2016-08-28T01:33:02.747Z,26.71
2016-08-28T01:33:24.472Z,26.55
2016-08-28T01:33:46.210Z,26.39
2016-08-28T01:34:07.942Z,26.34
2016-08-28T01:34:29.682Z,26.24
2016-08-28T01:34:51.419Z,26.35
2016-08-28T01:35:13.199Z,26.43
2016-08-28T01:35:34.990Z,26.67
2016-08-28T01:35:56.720Z,26.94
2016-08-28T01:36:18.451Z,27.04
2016-08-28T01:36:40.190Z,26.85
2016-08-28T01:37:01.909Z,26.68
2016-08-28T01:37:23.633Z,26.85
2016-08-28T01:37:45.402Z,26.95
2016-08-28T01:38:07.125Z,26.61
2016-08-28T01:38:28.843Z,26.36
2016-08-28T01:38:50.564Z,26.29
2016-08-28T01:39:17.056Z,26.27
2016-08-28T01:39:38.774Z,26.47
2016-08-28T01:40:00.515Z,26.77
2016-08-28T01:40:22.237Z,26.98
2016-08-28T01:40:43.977Z,27.13
2016-08-28T01:41:05.747Z,27.21
2016-08-28T01:41:27.463Z,27.30
2016-08-28T01:41:49.243Z,27.36
2016-08-28T01:42:10.996Z,27.28
2016-08-28T01:42:32.754Z,27.24
2016-08-28T01:42:54.480Z,27.36
2016-08-28T01:43:16.206Z,27.52
2016-08-28T01:43:37.926Z,27.61
2016-08-28T01:43:59.696Z,27.64
2016-08-28T01:44:21.417Z,27.33
2016-08-28T01:44:43.135Z,27.13
2016-08-28T01:45:04.883Z,27.16
2016-08-28T01:45:26.647Z,27.33
2016-08-28T01:45:48.396Z,27.44
2016-08-28T01:46:10.158Z,27.45
2016-08-28T01:46:31.888Z,27.54
2016-08-28T01:46:53.637Z,27.43
2016-08-28T01:47:15.403Z,27.16
2016-08-28T01:47:41.930Z,26.93
2016-08-28T01:48:03.676Z,26.78
2016-08-28T01:48:25.400Z,26.88
2016-08-28T01:48:47.139Z,26.81
2016-08-28T01:49:08.899Z,26.95
2016-08-28T01:49:35.405Z,27.18
2016-08-28T01:49:57.148Z,26.99
2016-08-28T01:50:18.900Z,26.82
2016-08-28T01:50:40.636Z,26.68
2016-08-28T01:51:02.359Z,26.60
2016-08-28T01:51:24.144Z,26.63
2016-08-28T01:51:45.877Z,26.63
2016-08-28T01:52:07.687Z,26.52
2016-08-28T01:52:29.448Z,26.53
2016-08-28T01:52:51.172Z,26.85
2016-08-28T01:53:17.661Z,27.02
2016-08-28T01:53:39.381Z,27.14
2016-08-28T01:54:01.114Z,27.30
2016-08-28T01:54:22.838Z,27.41
2016-08-28T01:54:44.554Z,27.41
2016-08-28T01:55:06.328Z,27.33
2016-08-28T01:55:28.072Z,27.29
2016-08-28T01:55:49.868Z,27.07
2016-08-28T01:56:11.620Z,27.04
2016-08-28T01:56:33.397Z,26.99
2016-08-28T01:56:55.187Z,26.40
2016-08-28T01:57:16.902Z,26.06
2016-08-28T01:57:38.630Z,25.81
2016-08-28T01:58:05.164Z,25.74
2016-08-28T01:58:26.886Z,25.68
2016-08-28T01:58:53.404Z,25.57
2016-08-28T01:59:15.119Z,25.65
2016-08-28T01:59:36.844Z,25.92
2016-08-28T01:59:58.572Z,26.12
2016-08-28T02:00:20.413Z,26.07
2016-08-28T02:00:42.198Z,26.35
2016-08-28T02:01:03.929Z,26.51
2016-08-28T02:01:25.651Z,26.47
2016-08-28T02:01:47.441Z,26.39
2016-08-28T02:02:09.160Z,26.34
2016-08-28T02:02:30.916Z,26.38
2016-08-28T02:02:52.725Z,26.49
2016-08-28T02:03:14.445Z,26.69
2016-08-28T02:03:36.179Z,26.81
2016-08-28T02:04:02.685Z,26.70
2016-08-28T02:04:24.461Z,26.62
2016-08-28T02:04:46.193Z,26.55
2016-08-28T02:05:07.923Z,26.58
2016-08-28T02:05:29.647Z,26.60
2016-08-28T02:05:51.373Z,26.58
2016-08-28T02:06:15.956Z,26.61
2016-08-28T02:06:37.720Z,26.57
2016-08-28T02:06:59.453Z,26.68
2016-08-28T02:07:21.276Z,26.69
2016-08-28T02:07:43.001Z,26.76
2016-08-28T02:08:04.758Z,26.81
2016-08-28T02:08:26.512Z,26.79
2016-08-28T02:08:48.237Z,26.87
2016-08-28T02:09:09.958Z,27.00
2016-08-28T02:09:31.713Z,27.08
2016-08-28T02:09:53.494Z,27.16
2016-08-28T02:10:15.259Z,27.30
2016-08-28T02:10:41.773Z,27.34
2016-08-28T02:11:29.989Z,27.19
2016-08-28T02:11:51.797Z,27.13
2016-08-28T02:12:13.562Z,27.18
2016-08-28T02:12:35.283Z,27.21
2016-08-28T02:13:01.782Z,27.34
2016-08-28T02:13:23.506Z,27.42
2016-08-28T02:13:45.235Z,27.40
2016-08-28T02:14:07.014Z,27.44
2016-08-28T02:14:33.567Z,27.41
2016-08-28T02:14:55.306Z,27.42
2016-08-28T02:15:17.046Z,27.32
2016-08-28T02:15:38.785Z,26.88
2016-08-28T02:16:05.136Z,26.73
2016-08-28T02:16:26.848Z,26.90
2016-08-28T02:16:48.568Z,26.92
2016-08-28T02:17:10.290Z,27.03
2016-08-28T02:17:32.039Z,27.18
2016-08-28T02:17:53.758Z,27.19
2016-08-28T02:18:15.478Z,27.21
2016-08-28T02:18:37.290Z,27.29
2016-08-28T02:18:59.017Z,27.21
2016-08-28T02:19:20.758Z,27.29
2016-08-28T02:19:42.506Z,27.37
2016-08-28T02:20:04.300Z,27.01
2016-08-28T02:20:26.067Z,26.84
2016-08-28T02:20:47.807Z,26.93
2016-08-28T02:21:09.522Z,26.93
2016-08-28T02:21:31.286Z,27.11
2016-08-28T02:21:53.136Z,27.27
2016-08-28T02:22:14.903Z,27.29
2016-08-28T02:22:36.624Z,27.19
2016-08-28T02:22:58.348Z,27.02
2016-08-28T02:23:20.147Z,27.11
2016-08-28T02:23:41.867Z,27.02
2016-08-28T02:24:03.632Z,27.09
2016-08-28T02:24:25.351Z,26.79
2016-08-28T02:24:47.085Z,26.59
2016-08-28T02:25:08.854Z,26.47
2016-08-28T02:25:33.390Z,26.53
2016-08-28T02:25:55.219Z,26.77
2016-08-28T02:26:16.942Z,26.88
2016-08-28T02:26:38.662Z,26.87
2016-08-28T02:27:00.412Z,26.76
2016-08-28T02:27:22.131Z,26.65
2016-08-28T02:27:43.853Z,26.86
2016-08-28T02:28:05.592Z,27.05
2016-08-28T02:28:27.456Z,27.18
2016-08-28T02:28:49.200Z,27.21
2016-08-28T02:29:11.095Z,27.23
2016-08-28T02:29:32.880Z,26.91
2016-08-28T02:29:54.635Z,26.61
2016-08-28T02:30:16.419Z,26.42
2016-08-28T02:30:38.145Z,26.21
2016-08-28T02:30:59.883Z,26.26
2016-08-28T02:31:21.610Z,26.36
2016-08-28T02:31:43.335Z,26.38
2016-08-28T02:32:05.129Z,26.42
2016-08-28T02:32:26.969Z,26.61
2016-08-28T02:32:49.750Z,26.78
2016-08-28T02:33:16.267Z,26.77
2016-08-28T02:33:38.092Z,26.73
2016-08-28T02:33:59.858Z,26.61
2016-08-28T02:34:21.625Z,26.52
2016-08-28T02:34:43.393Z,26.41
2016-08-28T02:35:05.130Z,26.21
2016-08-28T02:35:26.897Z,26.40
2016-08-28T02:35:48.655Z,26.56
2016-08-28T02:36:10.409Z,26.72
2016-08-28T02:36:32.130Z,26.82
2016-08-28T02:36:53.856Z,26.96
2016-08-28T02:37:15.597Z,27.06
2016-08-28T02:37:37.330Z,27.11
2016-08-28T02:37:59.094Z,27.00
2016-08-28T02:38:21.892Z,27.12
2016-08-28T02:38:43.613Z,27.18
2016-08-28T02:39:05.345Z,27.23
2016-08-28T02:39:27.065Z,27.20
2016-08-28T02:39:48.812Z,27.12
2016-08-28T02:40:10.618Z,27.14
2016-08-28T02:40:32.412Z,27.14
2016-08-28T02:40:54.135Z,27.07
2016-08-28T02:41:15.907Z,27.04
2016-08-28T02:41:37.702Z,27.12
2016-08-28T02:42:04.238Z,27.18
2016-08-28T02:42:25.956Z,27.27
2016-08-28T02:42:47.681Z,26.89
2016-08-28T02:43:09.516Z,26.62
2016-08-28T02:43:31.242Z,26.65
2016-08-28T02:43:52.967Z,26.80
2016-08-28T02:44:14.759Z,26.87
2016-08-28T02:44:36.536Z,26.87
2016-08-28T02:44:58.271Z,26.81
2016-08-28T02:45:19.994Z,26.88
2016-08-28T02:45:41.738Z,26.87
2016-08-28T02:46:03.499Z,26.94
2016-08-28T02:46:25.301Z,26.97
2016-08-28T02:46:47.049Z,26.71
2016-08-28T02:47:08.816Z,26.32
2016-08-28T02:47:30.632Z,26.31
2016-08-28T02:47:52.478Z,26.44
2016-08-28T02:48:15.208Z,26.63
2016-08-28T02:48:36.940Z,26.83
2016-08-28T02:48:58.668Z,26.69
2016-08-28T02:49:20.491Z,26.83
2016-08-28T02:49:42.247Z,26.80
2016-08-28T02:50:04.032Z,26.84
2016-08-28T02:50:25.834Z,26.77
2016-08-28T02:50:52.324Z,26.85
2016-08-28T02:51:14.051Z,26.87
2016-08-28T02:51:35.947Z,26.80
2016-08-28T02:51:57.715Z,26.54
2016-08-28T02:52:19.442Z,26.38
2016-08-28T02:52:41.181Z,26.30
2016-08-28T02:53:02.907Z,26.50
2016-08-28T02:53:24.634Z,26.59
2016-08-28T02:53:46.394Z,26.42
2016-08-28T02:54:08.112Z,26.53
2016-08-28T02:54:29.861Z,26.69
2016-08-28T02:54:51.655Z,26.82
2016-08-28T02:55:13.432Z,26.92
2016-08-28T02:55:35.162Z,26.71
2016-08-28T02:55:56.897Z,26.36
2016-08-28T02:56:18.630Z,26.48
2016-08-28T02:56:40.406Z,26.57
2016-08-28T02:57:02.213Z,26.34
2016-08-28T02:57:23.954Z,25.96
2016-08-28T02:57:50.496Z,25.71
2016-08-28T02:58:12.277Z,25.61
2016-08-28T02:58:34.102Z,25.48
2016-08-28T02:58:55.836Z,25.67
2016-08-28T02:59:22.333Z,25.78
2016-08-28T02:59:44.072Z,25.94
2016-08-28T03:00:05.840Z,25.93
2016-08-28T03:00:27.556Z,26.18
2016-08-28T03:00:49.331Z,26.43
2016-08-28T03:01:15.828Z,26.19
2016-08-28T03:01:37.642Z,25.90
2016-08-28T03:02:04.134Z,25.92
2016-08-28T03:02:30.676Z,26.05
2016-08-28T03:02:52.528Z,26.11
2016-08-28T03:03:14.445Z,26.26
2016-08-28T03:03:36.256Z,26.47
2016-08-28T03:03:58.028Z,26.62
2016-08-28T03:04:19.767Z,26.44
2016-08-28T03:04:41.540Z,26.44
2016-08-28T03:05:03.347Z,26.64
2016-08-28T03:05:26.120Z,26.78
2016-08-28T03:05:47.844Z,26.85
2016-08-28T03:06:09.562Z,26.78
2016-08-28T03:06:31.475Z,26.66
2016-08-28T03:06:53.093Z,26.71
2016-08-28T03:07:14.903Z,26.76
2016-08-28T03:07:36.631Z,26.80
2016-08-28T03:07:58.352Z,26.74
2016-08-28T03:08:20.105Z,26.65
2016-08-28T03:08:41.831Z,26.63
2016-08-28T03:09:03.668Z,26.72
2016-08-28T03:09:25.409Z,26.74
2016-08-28T03:09:51.905Z,26.52
2016-08-28T03:10:13.623Z,26.31
2016-08-28T03:10:35.372Z,26.38
2016-08-28T03:10:57.152Z,26.48
2016-08-28T03:11:18.885Z,26.56
2016-08-28T03:11:40.616Z,26.63
2016-08-28T03:12:02.344Z,26.54
2016-08-28T03:12:24.078Z,26.47
2016-08-28T03:12:45.861Z,26.44
2016-08-28T03:13:07.588Z,26.50
2016-08-28T03:13:29.339Z,26.40
2016-08-28T03:13:55.871Z,26.45
2016-08-28T03:14:17.596Z,26.58
2016-08-28T03:15:05.901Z,26.67
2016-08-28T03:15:27.645Z,26.71
2016-08-28T03:15:49.407Z,26.63
2016-08-28T03:16:11.174Z,26.56
2016-08-28T03:16:32.973Z,26.39
2016-08-28T03:16:54.713Z,26.49
2016-08-28T03:17:16.439Z,26.57
2016-08-28T03:17:38.186Z,26.46
2016-08-28T03:17:59.962Z,26.42
2016-08-28T03:18:21.688Z,26.44
2016-08-28T03:19:09.906Z,26.54
2016-08-28T03:19:31.627Z,26.37
2016-08-28T03:19:53.370Z,26.37
2016-08-28T03:20:15.150Z,26.51
2016-08-28T03:20:36.913Z,26.54
2016-08-28T03:21:03.405Z,26.60
2016-08-28T03:21:25.131Z,26.41
2016-08-28T03:21:46.919Z,26.22
2016-08-28T03:22:08.693Z,26.37
2016-08-28T03:22:30.429Z,26.49
2016-08-28T03:22:52.218Z,26.58
2016-08-28T03:23:14.041Z,26.60
2016-08-28T03:23:35.819Z,26.72
2016-08-28T03:23:57.536Z,26.72
2016-08-28T03:24:19.271Z,26.61
2016-08-28T03:24:41.030Z,26.56
2016-08-28T03:25:02.748Z,26.62
2016-08-28T03:25:24.478Z,26.46
2016-08-28T03:25:51.041Z,26.19
2016-08-28T03:26:12.759Z,26.33
2016-08-28T03:26:34.486Z,26.53
2016-08-28T03:26:56.214Z,26.64
2016-08-28T03:27:17.987Z,26.68
2016-08-28T03:27:39.745Z,26.78
2016-08-28T03:28:01.461Z,26.83
2016-08-28T03:28:23.207Z,26.92
2016-08-28T03:28:45.130Z,26.57
2016-08-28T03:29:06.868Z,26.49
2016-08-28T03:29:28.600Z,26.57
2016-08-28T03:29:50.332Z,26.37
2016-08-28T03:30:12.106Z,26.55
2016-08-28T03:30:33.855Z,26.65
2016-08-28T03:30:55.581Z,26.71
2016-08-28T03:31:17.361Z,26.70
2016-08-28T03:31:39.114Z,26.70
2016-08-28T03:32:05.602Z,26.74
2016-08-28T03:32:27.437Z,26.78
2016-08-28T03:32:49.175Z,26.71
2016-08-28T03:33:10.964Z,26.45
2016-08-28T03:33:32.685Z,26.12
2016-08-28T03:33:54.426Z,25.88
2016-08-28T03:34:16.211Z,25.92
2016-08-28T03:34:37.937Z,26.03
2016-08-28T03:35:04.478Z,26.05
2016-08-28T03:35:26.247Z,26.13
2016-08-28T03:35:52.740Z,26.12
2016-08-28T03:36:14.487Z,26.25
2016-08-28T03:36:36.288Z,26.29
2016-08-28T03:36:58.179Z,26.40
2016-08-28T03:37:19.891Z,26.46
2016-08-28T03:37:41.608Z,26.53
2016-08-28T03:38:03.380Z,26.58
2016-08-28T03:38:25.175Z,26.54
2016-08-28T03:38:46.891Z,26.63
2016-08-28T03:39:08.678Z,26.46
2016-08-28T03:39:30.414Z,26.51
2016-08-28T03:39:52.229Z,26.59
2016-08-28T03:40:13.944Z,26.46
2016-08-28T03:40:35.671Z,26.49
2016-08-28T03:40:57.410Z,26.51
2016-08-28T03:41:19.140Z,26.55
2016-08-28T03:41:40.898Z,26.23
2016-08-28T03:42:02.705Z,25.94
2016-08-28T03:42:24.505Z,25.95
2016-08-28T03:42:46.331Z,25.96
2016-08-28T03:43:34.574Z,25.74
2016-08-28T03:43:56.332Z,25.73
2016-08-28T03:44:18.135Z,25.63
2016-08-28T03:44:39.969Z,25.74
2016-08-28T03:45:01.749Z,25.94
2016-08-28T03:45:23.528Z,25.69
2016-08-28T03:45:45.291Z,25.58
2016-08-28T03:46:07.025Z,25.49
2016-08-28T03:46:28.746Z,25.42
2016-08-28T03:46:55.242Z,25.39
2016-08-28T03:47:16.979Z,25.38
2016-08-28T03:47:38.697Z,25.30
2016-08-28T03:48:00.426Z,25.46
2016-08-28T03:48:22.141Z,25.68
2016-08-28T03:48:43.863Z,25.67
2016-08-28T03:49:05.585Z,25.63
2016-08-28T03:49:27.308Z,25.62
2016-08-28T03:49:49.065Z,25.44
2016-08-28T03:50:10.798Z,25.41
2016-08-28T03:50:32.603Z,25.49
2016-08-28T03:50:54.318Z,25.70
2016-08-28T03:51:16.089Z,25.89
2016-08-28T03:51:37.832Z,26.09
2016-08-28T03:51:59.558Z,26.14
2016-08-28T03:52:21.320Z,26.22
2016-08-28T03:52:43.041Z,26.19
2016-08-28T03:53:04.819Z,26.22
2016-08-28T03:53:26.560Z,26.22
2016-08-28T03:53:48.282Z,26.23
2016-08-28T03:54:10.018Z,26.35
2016-08-28T03:54:31.735Z,26.42
2016-08-28T03:54:53.502Z,26.53
2016-08-28T03:55:15.297Z,26.51
2016-08-28T03:55:37.098Z,26.54
2016-08-28T03:55:58.834Z,26.51
2016-08-28T03:56:20.580Z,26.56
2016-08-28T03:56:42.308Z,26.58
2016-08-28T03:57:06.024Z,26.60
2016-08-28T03:57:32.516Z,26.60
2016-08-28T03:57:54.281Z,26.42
2016-08-28T03:58:20.770Z,26.38
2016-08-28T03:58:42.510Z,26.41
2016-08-28T03:59:04.319Z,26.46
2016-08-28T03:59:26.060Z,26.30
2016-08-28T03:59:47.825Z,26.34
2016-08-28T04:00:09.563Z,26.41
2016-08-28T04:00:31.277Z,26.31
2016-08-28T04:00:53.008Z,26.07
2016-08-28T04:01:14.737Z,25.87
2016-08-28T04:01:36.581Z,25.68
2016-08-28T04:01:58.299Z,25.46
2016-08-28T04:02:20.020Z,25.50
2016-08-28T04:02:41.770Z,25.49
2016-08-28T04:03:03.495Z,25.51
2016-08-28T04:03:25.222Z,25.44
2016-08-28T04:03:47.046Z,25.43
2016-08-28T04:04:08.771Z,25.63
2016-08-28T04:04:30.497Z,25.76
2016-08-28T04:04:52.234Z,25.92
2016-08-28T04:05:13.966Z,26.03
2016-08-28T04:05:35.726Z,26.04
2016-08-28T04:05:57.488Z,26.17
2016-08-28T04:06:19.238Z,26.18
2016-08-28T04:06:41.005Z,26.20
2016-08-28T04:07:02.772Z,26.26
2016-08-28T04:07:24.548Z,26.18
2016-08-28T04:07:46.293Z,26.14
2016-08-28T04:08:08.039Z,25.78
2016-08-28T04:08:29.811Z,25.53
2016-08-28T04:08:52.547Z,25.69
2016-08-28T04:09:14.265Z,25.82
2016-08-28T04:09:36.040Z,25.85
2016-08-28T04:09:57.758Z,25.93
2016-08-28T04:10:19.495Z,25.94
2016-08-28T04:10:41.209Z,25.97
2016-08-28T04:11:03.011Z,25.78
2016-08-28T04:11:24.771Z,25.74
2016-08-28T04:11:46.489Z,25.62
2016-08-28T04:12:08.268Z,25.46
2016-08-28T04:12:29.998Z,25.29
2016-08-28T04:12:51.710Z,25.16
2016-08-28T04:13:13.450Z,25.19
2016-08-28T04:13:35.188Z,25.16
2016-08-28T04:13:56.963Z,25.40
2016-08-28T04:14:18.691Z,25.52
2016-08-28T04:14:40.459Z,25.59
2016-08-28T04:15:02.247Z,25.81
2016-08-28T04:15:24.019Z,25.84
2016-08-28T04:15:45.799Z,25.97
2016-08-28T04:16:07.512Z,26.07
2016-08-28T04:16:29.271Z,26.16
2016-08-28T04:16:50.994Z,26.01
2016-08-28T04:17:12.745Z,25.84
2016-08-28T04:17:34.468Z,25.72
2016-08-28T04:17:56.186Z,25.57
2016-08-28T04:18:17.950Z,25.38
2016-08-28T04:18:39.774Z,25.38
2016-08-28T04:19:01.576Z,25.27
2016-08-28T04:19:23.342Z,25.21
2016-08-28T04:19:45.101Z,25.26
2016-08-28T04:20:06.829Z,25.26
2016-08-28T04:20:28.558Z,25.30
2016-08-28T04:20:50.284Z,25.56
2016-08-28T04:21:12.029Z,25.80
2016-08-28T04:21:33.746Z,25.96
2016-08-28T04:21:55.514Z,26.02
2016-08-28T04:22:17.239Z,26.04
2016-08-28T04:22:39.118Z,25.91
2016-08-28T04:23:00.853Z,25.96
2016-08-28T04:23:22.690Z,25.98
2016-08-28T04:23:44.409Z,25.99
2016-08-28T04:24:06.132Z,25.75
2016-08-28T04:24:27.850Z,25.49
2016-08-28T04:24:49.640Z,25.40
2016-08-28T04:25:11.378Z,25.50
2016-08-28T04:25:33.221Z,25.68
2016-08-28T04:25:54.949Z,25.46
2016-08-28T04:26:16.670Z,25.26
2016-08-28T04:26:38.512Z,25.16
2016-08-28T04:27:00.263Z,25.16
2016-08-28T04:27:22.014Z,25.34
2016-08-28T04:27:43.741Z,25.38
2016-08-28T04:28:05.485Z,25.44
2016-08-28T04:28:27.204Z,25.65
2016-08-28T04:28:48.923Z,25.77
2016-08-28T04:29:10.642Z,25.86
2016-08-28T04:29:59.857Z,25.96
2016-08-28T04:30:21.586Z,25.94
2016-08-28T04:30:43.304Z,25.64
2016-08-28T04:31:05.082Z,25.72
2016-08-28T04:31:26.805Z,25.55
2016-08-28T04:31:48.535Z,25.21
2016-08-28T04:32:10.269Z,24.93
2016-08-28T04:32:31.980Z,24.87
2016-08-28T04:32:53.700Z,24.72
2016-08-28T04:33:15.419Z,24.58
2016-08-28T04:33:37.157Z,24.56
2016-08-28T04:33:58.930Z,24.56
2016-08-28T04:34:20.665Z,24.82
2016-08-28T04:35:08.933Z,25.46
2016-08-28T04:35:30.657Z,25.37
2016-08-28T04:35:52.385Z,25.21
2016-08-28T04:36:14.124Z,24.96
2016-08-28T04:36:35.879Z,24.81
2016-08-28T04:36:57.591Z,24.84
2016-08-28T04:37:19.381Z,24.86
2016-08-28T04:37:41.220Z,24.96
2016-08-28T04:38:02.938Z,24.99
2016-08-28T04:38:24.650Z,25.20
2016-08-28T04:38:46.403Z,25.38
2016-08-28T04:39:08.120Z,25.45
2016-08-28T04:39:29.839Z,25.66
2016-08-28T04:39:51.559Z,25.38
2016-08-28T04:40:16.098Z,25.17
2016-08-28T04:40:37.811Z,25.43
2016-08-28T04:41:00.082Z,25.40
2016-08-28T04:41:21.778Z,25.32
2016-08-28T04:41:43.769Z,25.41
2016-08-28T04:42:05.520Z,25.41
2016-08-28T04:42:27.229Z,25.44
2016-08-28T04:42:48.954Z,25.34
2016-08-28T04:43:10.674Z,25.47
2016-08-28T04:43:32.671Z,25.59
2016-08-28T04:43:54.392Z,25.67
2016-08-28T04:44:16.111Z,25.65
2016-08-28T04:44:37.828Z,25.71
2016-08-28T04:44:59.557Z,25.83
2016-08-28T04:45:21.279Z,25.70
2016-08-28T04:45:43.000Z,25.60
2016-08-28T04:46:04.716Z,25.54
2016-08-28T04:46:26.442Z,25.56
2016-08-28T04:46:48.220Z,25.44
2016-08-28T04:47:09.941Z,25.27
2016-08-28T04:47:31.687Z,25.32
2016-08-28T04:47:53.391Z,25.57
2016-08-28T04:48:15.126Z,25.70
2016-08-28T04:48:36.845Z,25.82
2016-08-28T04:48:58.560Z,25.87